REAPERS weather

Reapers Field
Albion, Arkansas, United States

Public forecast

Using degrees Fahrenheit for public forecast. Weather courtesy of forecast.io.

Closest aviation weather report (METAR) to Reapers Field

Closest report is Searcy Municipal Airport, 7.7 nm (14.3 km) SSE. Retrieved 2019/11/18 06:56 UTC (46 minutes ago):

KSRC 180656Z AUTO 00000KT 9SM CLR 01/01 A2995 RMK AO2 SLP145 T00060006 FZRANO

Closest aviation forecast (TAF) to Reapers Field

Closest forecast is Little Rock Air Force Base, 29.9 nm (55.4 km) SW. Retrieved 2019/11/18 07:57 UTC (0 seconds ago):

TAF KLRF 180700Z 1807/1913 VRB04KT 9999 SKC QNH2994INS BECMG 1815/1816 VRB04KT 9999 SCT080 QNH2983INS BECMG 1903/1904 29008KT 9999 SKC QNH2984INS TX12/1821Z TNM02/1812Z